Terminal Aerodrome Forecast
Issued by NWS Upton, NY

Home | Current Version | Previous Version | Text Only | Print | Product List | Glossary On
Versions: 1 2 3 4 5 6 7 8 9 10 11 12 13 14 15 16 17 18 19 20 21 22 23 24 25 26 27 28 29 30 31 32
000
FTUS41 KOKX 302340
TAFEWR
TAF
KEWR 302340Z 3100/0106 16007KT P6SM SCT050 BKN250
     FM310200 19005KT P6SM SCT040 BKN250
     FM310900 22005KT P6SM SCT010 SCT040 BKN250
     FM311400 24007KT P6SM SCT030 BKN250
     FM311800 21008KT P6SM SCT050 BKN250
     FM312100 16010KT P6SM SCT050 BKN150
     FM010000 18007KT P6SM BKN050=

USA.gov is the U.S. government's official web portal to all federal, state and local government web resources and services.